sensor_id;sensor_type;location;lat;lon;timestamp;P1;durP1;ratioP1;P2;durP2;ratioP2
7410;SDS011;3747;48.628;9.058;2022-12-18T00:01:40;45.60;;;23.33;;
7410;SDS011;3747;48.628;9.058;2022-12-18T00:04:11;46.83;;;24.43;;
7410;SDS011;3747;48.628;9.058;2022-12-18T00:06:44;53.50;;;25.90;;
7410;SDS011;3747;48.628;9.058;2022-12-18T00:09:11;44.47;;;24.10;;
7410;SDS011;3747;48.628;9.058;2022-12-18T00:11:37;43.97;;;20.77;;
7410;SDS011;3747;48.628;9.058;2022-12-18T00:14:04;37.17;;;19.83;;
7410;SDS011;3747;48.628;9.058;2022-12-18T00:16:32;42.30;;;23.73;;
7410;SDS011;3747;48.628;9.058;2022-12-18T00:19:01;37.80;;;20.13;;
7410;SDS011;3747;48.628;9.058;2022-12-18T00:21:29;39.60;;;21.37;;
7410;SDS011;3747;48.628;9.058;2022-12-18T00:23:58;47.53;;;25.03;;
7410;SDS011;3747;48.628;9.058;2022-12-18T00:26:26;42.93;;;23.90;;
7410;SDS011;3747;48.628;9.058;2022-12-18T00:28:54;50.00;;;23.20;;
7410;SDS011;3747;48.628;9.058;2022-12-18T00:31:24;41.83;;;22.13;;
7410;SDS011;3747;48.628;9.058;2022-12-18T00:33:52;42.97;;;20.20;;
7410;SDS011;3747;48.628;9.058;2022-12-18T00:36:21;39.20;;;20.73;;
7410;SDS011;3747;48.628;9.058;2022-12-18T00:38:49;38.43;;;23.03;;
7410;SDS011;3747;48.628;9.058;2022-12-18T00:41:17;37.00;;;20.50;;
7410;SDS011;3747;48.628;9.058;2022-12-18T00:43:58;32.20;;;18.33;;
7410;SDS011;3747;48.628;9.058;2022-12-18T00:46:25;37.23;;;19.83;;
7410;SDS011;3747;48.628;9.058;2022-12-18T00:48:53;41.63;;;20.97;;
7410;SDS011;3747;48.628;9.058;2022-12-18T00:51:20;34.43;;;17.87;;
7410;SDS011;3747;48.628;9.058;2022-12-18T00:53:46;35.53;;;18.33;;
7410;SDS011;3747;48.628;9.058;2022-12-18T00:56:13;38.33;;;18.77;;
7410;SDS011;3747;48.628;9.058;2022-12-18T00:58:40;33.67;;;16.30;;
7410;SDS011;3747;48.628;9.058;2022-12-18T01:01:07;36.80;;;18.63;;
7410;SDS011;3747;48.628;9.058;2022-12-18T01:03:33;37.10;;;18.00;;
7410;SDS011;3747;48.628;9.058;2022-12-18T01:06:06;37.80;;;20.67;;
7410;SDS011;3747;48.628;9.058;2022-12-18T01:08:33;39.70;;;18.53;;
7410;SDS011;3747;48.628;9.058;2022-12-18T01:11:00;34.63;;;18.93;;
7410;SDS011;3747;48.628;9.058;2022-12-18T01:13:32;39.60;;;19.70;;
7410;SDS011;3747;48.628;9.058;2022-12-18T01:15:59;36.93;;;17.90;;
7410;SDS011;3747;48.628;9.058;2022-12-18T01:18:25;39.37;;;18.50;;
7410;SDS011;3747;48.628;9.058;2022-12-18T01:20:52;39.17;;;18.70;;
7410;SDS011;3747;48.628;9.058;2022-12-18T01:23:20;36.17;;;19.40;;
7410;SDS011;3747;48.628;9.058;2022-12-18T01:25:47;38.73;;;19.70;;
7410;SDS011;3747;48.628;9.058;2022-12-18T01:28:14;36.63;;;19.00;;
7410;SDS011;3747;48.628;9.058;2022-12-18T01:30:41;35.33;;;18.93;;
7410;SDS011;3747;48.628;9.058;2022-12-18T01:33:07;37.57;;;20.00;;
7410;SDS011;3747;48.628;9.058;2022-12-18T01:35:39;36.00;;;18.63;;
7410;SDS011;3747;48.628;9.058;2022-12-18T01:38:06;36.17;;;19.07;;
7410;SDS011;3747;48.628;9.058;2022-12-18T01:40:34;38.40;;;19.70;;
7410;SDS011;3747;48.628;9.058;2022-12-18T01:43:01;35.53;;;16.63;;
7410;SDS011;3747;48.628;9.058;2022-12-18T01:45:28;49.30;;;20.03;;
7410;SDS011;3747;48.628;9.058;2022-12-18T01:47:56;49.27;;;21.97;;
7410;SDS011;3747;48.628;9.058;2022-12-18T01:50:27;43.00;;;19.77;;
7410;SDS011;3747;48.628;9.058;2022-12-18T01:52:58;44.57;;;21.30;;
7410;SDS011;3747;48.628;9.058;2022-12-18T01:55:28;46.27;;;22.10;;
7410;SDS011;3747;48.628;9.058;2022-12-18T01:57:59;52.33;;;23.03;;
7410;SDS011;3747;48.628;9.058;2022-12-18T02:00:26;45.50;;;22.73;;
7410;SDS011;3747;48.628;9.058;2022-12-18T02:02:54;49.07;;;21.97;;
7410;SDS011;3747;48.628;9.058;2022-12-18T02:05:22;45.60;;;21.50;;
7410;SDS011;3747;48.628;9.058;2022-12-18T02:07:59;46.67;;;21.17;;
7410;SDS011;3747;48.628;9.058;2022-12-18T02:10:35;42.13;;;19.60;;
7410;SDS011;3747;48.628;9.058;2022-12-18T02:13:12;35.50;;;20.10;;
7410;SDS011;3747;48.628;9.058;2022-12-18T02:15:47;39.80;;;19.30;;
7410;SDS011;3747;48.628;9.058;2022-12-18T02:18:23;37.73;;;17.80;;
7410;SDS011;3747;48.628;9.058;2022-12-18T02:20:54;31.73;;;16.73;;
7410;SDS011;3747;48.628;9.058;2022-12-18T02:23:31;36.00;;;18.30;;
7410;SDS011;3747;48.628;9.058;2022-12-18T02:26:15;35.47;;;18.07;;
7410;SDS011;3747;48.628;9.058;2022-12-18T02:28:46;33.10;;;17.10;;
7410;SDS011;3747;48.628;9.058;2022-12-18T02:31:18;32.80;;;17.57;;
7410;SDS011;3747;48.628;9.058;2022-12-18T02:33:49;35.30;;;18.73;;
7410;SDS011;3747;48.628;9.058;2022-12-18T02:36:19;37.17;;;19.47;;
7410;SDS011;3747;48.628;9.058;2022-12-18T02:38:47;31.87;;;15.10;;
7410;SDS011;3747;48.628;9.058;2022-12-18T02:41:17;29.53;;;15.90;;
7410;SDS011;3747;48.628;9.058;2022-12-18T02:43:48;29.47;;;16.33;;
7410;SDS011;3747;48.628;9.058;2022-12-18T02:46:24;29.07;;;15.70;;
7410;SDS011;3747;48.628;9.058;2022-12-18T02:49:01;29.13;;;15.90;;
7410;SDS011;3747;48.628;9.058;2022-12-18T02:51:37;34.17;;;16.63;;
7410;SDS011;3747;48.628;9.058;2022-12-18T02:54:13;30.47;;;15.53;;
7410;SDS011;3747;48.628;9.058;2022-12-18T02:56:51;30.53;;;16.00;;
7410;SDS011;3747;48.628;9.058;2022-12-18T02:59:23;30.40;;;16.37;;
7410;SDS011;3747;48.628;9.058;2022-12-18T03:01:57;31.83;;;17.83;;
7410;SDS011;3747;48.628;9.058;2022-12-18T03:04:30;32.23;;;18.00;;
7410;SDS011;3747;48.628;9.058;2022-12-18T03:07:02;28.87;;;16.30;;
7410;SDS011;3747;48.628;9.058;2022-12-18T03:09:36;25.47;;;14.33;;
7410;SDS011;3747;48.628;9.058;2022-12-18T03:12:10;27.53;;;15.27;;
7410;SDS011;3747;48.628;9.058;2022-12-18T03:14:52;29.63;;;16.27;;
7410;SDS011;3747;48.628;9.058;2022-12-18T03:17:25;29.77;;;14.80;;
7410;SDS011;3747;48.628;9.058;2022-12-18T03:19:54;29.50;;;14.97;;
7410;SDS011;3747;48.628;9.058;2022-12-18T03:22:24;31.23;;;15.87;;
7410;SDS011;3747;48.628;9.058;2022-12-18T03:24:56;30.00;;;15.77;;
7410;SDS011;3747;48.628;9.058;2022-12-18T03:27:25;25.67;;;15.03;;
7410;SDS011;3747;48.628;9.058;2022-12-18T03:29:55;24.23;;;13.97;;
7410;SDS011;3747;48.628;9.058;2022-12-18T03:32:32;25.07;;;13.57;;
7410;SDS011;3747;48.628;9.058;2022-12-18T03:35:04;25.93;;;14.50;;
7410;SDS011;3747;48.628;9.058;2022-12-18T03:37:33;29.13;;;14.57;;
7410;SDS011;3747;48.628;9.058;2022-12-18T03:40:00;26.87;;;13.97;;
7410;SDS011;3747;48.628;9.058;2022-12-18T03:42:28;25.00;;;14.73;;
7410;SDS011;3747;48.628;9.058;2022-12-18T03:45:04;25.70;;;13.77;;
7410;SDS011;3747;48.628;9.058;2022-12-18T03:47:36;30.73;;;14.40;;
7410;SDS011;3747;48.628;9.058;2022-12-18T03:50:09;29.23;;;14.77;;
7410;SDS011;3747;48.628;9.058;2022-12-18T03:52:41;25.33;;;13.93;;
7410;SDS011;3747;48.628;9.058;2022-12-18T03:55:15;30.60;;;14.47;;
7410;SDS011;3747;48.628;9.058;2022-12-18T03:57:45;24.30;;;15.07;;
7410;SDS011;3747;48.628;9.058;2022-12-18T04:00:14;27.10;;;13.43;;
7410;SDS011;3747;48.628;9.058;2022-12-18T04:02:44;25.23;;;12.93;;
7410;SDS011;3747;48.628;9.058;2022-12-18T04:05:14;21.93;;;12.37;;
7410;SDS011;3747;48.628;9.058;2022-12-18T04:07:43;25.90;;;13.33;;
7410;SDS011;3747;48.628;9.058;2022-12-18T04:10:10;22.90;;;13.27;;
7410;SDS011;3747;48.628;9.058;2022-12-18T04:12:39;25.77;;;12.67;;
7410;SDS011;3747;48.628;9.058;2022-12-18T04:15:08;27.13;;;13.67;;
7410;SDS011;3747;48.628;9.058;2022-12-18T04:17:36;27.63;;;13.00;;
7410;SDS011;3747;48.628;9.058;2022-12-18T04:20:03;22.93;;;13.20;;
7410;SDS011;3747;48.628;9.058;2022-12-18T04:22:31;24.20;;;13.40;;
7410;SDS011;3747;48.628;9.058;2022-12-18T04:24:57;25.10;;;13.20;;
7410;SDS011;3747;48.628;9.058;2022-12-18T04:27:24;26.03;;;13.17;;
7410;SDS011;3747;48.628;9.058;2022-12-18T04:29:51;23.63;;;13.43;;
7410;SDS011;3747;48.628;9.058;2022-12-18T04:32:19;29.50;;;13.77;;
7410;SDS011;3747;48.628;9.058;2022-12-18T04:34:45;22.47;;;12.67;;
7410;SDS011;3747;48.628;9.058;2022-12-18T04:37:12;24.27;;;14.43;;
7410;SDS011;3747;48.628;9.058;2022-12-18T04:39:39;27.63;;;13.03;;
7410;SDS011;3747;48.628;9.058;2022-12-18T04:42:06;23.57;;;12.70;;
7410;SDS011;3747;48.628;9.058;2022-12-18T04:44:32;26.43;;;13.67;;
7410;SDS011;3747;48.628;9.058;2022-12-18T04:46:59;24.57;;;13.63;;
7410;SDS011;3747;48.628;9.058;2022-12-18T04:49:27;28.30;;;14.13;;
7410;SDS011;3747;48.628;9.058;2022-12-18T04:51:54;26.20;;;13.23;;
7410;SDS011;3747;48.628;9.058;2022-12-18T04:54:21;20.30;;;10.87;;
7410;SDS011;3747;48.628;9.058;2022-12-18T04:56:48;23.90;;;13.43;;
7410;SDS011;3747;48.628;9.058;2022-12-18T04:59:14;21.40;;;12.90;;
7410;SDS011;3747;48.628;9.058;2022-12-18T05:01:41;23.27;;;12.30;;
7410;SDS011;3747;48.628;9.058;2022-12-18T05:04:08;24.73;;;13.50;;
7410;SDS011;3747;48.628;9.058;2022-12-18T05:06:36;29.60;;;16.33;;
7410;SDS011;3747;48.628;9.058;2022-12-18T05:09:02;27.33;;;14.23;;
7410;SDS011;3747;48.628;9.058;2022-12-18T05:11:29;26.77;;;15.10;;
7410;SDS011;3747;48.628;9.058;2022-12-18T05:13:56;24.90;;;12.53;;
7410;SDS011;3747;48.628;9.058;2022-12-18T05:16:23;29.70;;;13.43;;
7410;SDS011;3747;48.628;9.058;2022-12-18T05:18:50;21.17;;;12.23;;
7410;SDS011;3747;48.628;9.058;2022-12-18T05:21:16;25.73;;;13.67;;
7410;SDS011;3747;48.628;9.058;2022-12-18T05:23:44;25.80;;;13.07;;
7410;SDS011;3747;48.628;9.058;2022-12-18T05:26:14;25.30;;;13.27;;
7410;SDS011;3747;48.628;9.058;2022-12-18T05:28:43;27.57;;;13.37;;
7410;SDS011;3747;48.628;9.058;2022-12-18T05:31:09;25.23;;;12.93;;
7410;SDS011;3747;48.628;9.058;2022-12-18T05:33:37;20.57;;;12.43;;
7410;SDS011;3747;48.628;9.058;2022-12-18T05:36:05;20.23;;;12.57;;
7410;SDS011;3747;48.628;9.058;2022-12-18T05:38:33;18.80;;;11.27;;
7410;SDS011;3747;48.628;9.058;2022-12-18T05:41:03;18.50;;;11.33;;
7410;SDS011;3747;48.628;9.058;2022-12-18T05:43:30;19.63;;;12.57;;
7410;SDS011;3747;48.628;9.058;2022-12-18T05:46:02;25.00;;;13.80;;
7410;SDS011;3747;48.628;9.058;2022-12-18T05:48:30;22.97;;;11.30;;
7410;SDS011;3747;48.628;9.058;2022-12-18T05:51:02;23.27;;;12.63;;
7410;SDS011;3747;48.628;9.058;2022-12-18T05:53:31;22.60;;;11.93;;
7410;SDS011;3747;48.628;9.058;2022-12-18T05:55:59;21.10;;;12.33;;
7410;SDS011;3747;48.628;9.058;2022-12-18T05:58:28;22.23;;;12.03;;
7410;SDS011;3747;48.628;9.058;2022-12-18T06:00:56;21.93;;;12.70;;
7410;SDS011;3747;48.628;9.058;2022-12-18T06:03:23;29.13;;;13.87;;
7410;SDS011;3747;48.628;9.058;2022-12-18T06:05:50;28.53;;;13.90;;
7410;SDS011;3747;48.628;9.058;2022-12-18T06:08:17;27.07;;;13.23;;
7410;SDS011;3747;48.628;9.058;2022-12-18T06:10:49;33.23;;;15.70;;
7410;SDS011;3747;48.628;9.058;2022-12-18T06:13:17;22.57;;;12.60;;
7410;SDS011;3747;48.628;9.058;2022-12-18T06:15:45;28.27;;;14.17;;
7410;SDS011;3747;48.628;9.058;2022-12-18T06:18:12;27.73;;;14.63;;
7410;SDS011;3747;48.628;9.058;2022-12-18T06:20:39;20.67;;;12.97;;
7410;SDS011;3747;48.628;9.058;2022-12-18T06:23:06;22.90;;;11.83;;
7410;SDS011;3747;48.628;9.058;2022-12-18T06:25:33;28.07;;;12.70;;
7410;SDS011;3747;48.628;9.058;2022-12-18T06:28:08;25.23;;;14.17;;
7410;SDS011;3747;48.628;9.058;2022-12-18T06:30:35;25.57;;;13.07;;
7410;SDS011;3747;48.628;9.058;2022-12-18T06:33:03;22.60;;;12.00;;
7410;SDS011;3747;48.628;9.058;2022-12-18T06:35:31;28.40;;;14.70;;
7410;SDS011;3747;48.628;9.058;2022-12-18T06:37:58;26.90;;;11.93;;
7410;SDS011;3747;48.628;9.058;2022-12-18T06:40:26;21.17;;;12.03;;
7410;SDS011;3747;48.628;9.058;2022-12-18T06:42:53;30.33;;;12.00;;
7410;SDS011;3747;48.628;9.058;2022-12-18T06:45:20;26.10;;;10.77;;
7410;SDS011;3747;48.628;9.058;2022-12-18T06:47:47;27.50;;;13.50;;
7410;SDS011;3747;48.628;9.058;2022-12-18T06:50:15;25.70;;;12.57;;
7410;SDS011;3747;48.628;9.058;2022-12-18T06:52:42;28.37;;;12.40;;
7410;SDS011;3747;48.628;9.058;2022-12-18T06:55:09;29.30;;;14.00;;
7410;SDS011;3747;48.628;9.058;2022-12-18T06:57:37;27.77;;;14.10;;
7410;SDS011;3747;48.628;9.058;2022-12-18T07:00:05;21.10;;;13.07;;
7410;SDS011;3747;48.628;9.058;2022-12-18T07:02:33;22.87;;;12.70;;
7410;SDS011;3747;48.628;9.058;2022-12-18T07:05:00;23.20;;;13.00;;
7410;SDS011;3747;48.628;9.058;2022-12-18T07:07:28;23.60;;;14.33;;
7410;SDS011;3747;48.628;9.058;2022-12-18T07:09:55;30.63;;;16.50;;
7410;SDS011;3747;48.628;9.058;2022-12-18T07:12:22;30.40;;;15.67;;
7410;SDS011;3747;48.628;9.058;2022-12-18T07:14:48;26.40;;;15.90;;
7410;SDS011;3747;48.628;9.058;2022-12-18T07:17:15;35.27;;;17.03;;
7410;SDS011;3747;48.628;9.058;2022-12-18T07:19:42;32.53;;;16.33;;
7410;SDS011;3747;48.628;9.058;2022-12-18T07:22:08;37.57;;;18.50;;
7410;SDS011;3747;48.628;9.058;2022-12-18T07:24:36;36.07;;;18.43;;
7410;SDS011;3747;48.628;9.058;2022-12-18T07:27:03;36.30;;;16.47;;
7410;SDS011;3747;48.628;9.058;2022-12-18T07:29:30;31.63;;;15.93;;
7410;SDS011;3747;48.628;9.058;2022-12-18T07:31:56;29.17;;;15.97;;
7410;SDS011;3747;48.628;9.058;2022-12-18T07:34:23;34.60;;;16.13;;
7410;SDS011;3747;48.628;9.058;2022-12-18T07:36:50;31.23;;;14.10;;
7410;SDS011;3747;48.628;9.058;2022-12-18T07:39:17;30.40;;;14.77;;
7410;SDS011;3747;48.628;9.058;2022-12-18T07:41:45;29.63;;;15.40;;
7410;SDS011;3747;48.628;9.058;2022-12-18T07:44:31;32.70;;;15.47;;
7410;SDS011;3747;48.628;9.058;2022-12-18T07:46:58;34.57;;;15.80;;
7410;SDS011;3747;48.628;9.058;2022-12-18T07:49:25;33.70;;;18.10;;
7410;SDS011;3747;48.628;9.058;2022-12-18T07:51:53;32.13;;;17.47;;
7410;SDS011;3747;48.628;9.058;2022-12-18T07:54:21;34.10;;;17.37;;
7410;SDS011;3747;48.628;9.058;2022-12-18T07:56:49;32.93;;;16.50;;
7410;SDS011;3747;48.628;9.058;2022-12-18T07:59:16;36.70;;;19.20;;
7410;SDS011;3747;48.628;9.058;2022-12-18T08:01:43;34.77;;;18.97;;
7410;SDS011;3747;48.628;9.058;2022-12-18T08:04:10;46.13;;;25.27;;
7410;SDS011;3747;48.628;9.058;2022-12-18T08:06:36;43.10;;;24.87;;
7410;SDS011;3747;48.628;9.058;2022-12-18T08:09:03;51.30;;;26.30;;
7410;SDS011;3747;48.628;9.058;2022-12-18T08:11:30;52.73;;;27.53;;
7410;SDS011;3747;48.628;9.058;2022-12-18T08:13:58;50.93;;;29.37;;
7410;SDS011;3747;48.628;9.058;2022-12-18T08:16:26;56.10;;;31.40;;
7410;SDS011;3747;48.628;9.058;2022-12-18T08:18:53;53.63;;;30.30;;
7410;SDS011;3747;48.628;9.058;2022-12-18T08:21:21;44.97;;;27.77;;
7410;SDS011;3747;48.628;9.058;2022-12-18T08:23:49;51.10;;;30.50;;
7410;SDS011;3747;48.628;9.058;2022-12-18T08:26:17;47.50;;;29.07;;
7410;SDS011;3747;48.628;9.058;2022-12-18T08:28:43;42.50;;;26.13;;
7410;SDS011;3747;48.628;9.058;2022-12-18T08:31:12;38.03;;;25.47;;
7410;SDS011;3747;48.628;9.058;2022-12-18T08:33:38;34.13;;;23.53;;
7410;SDS011;3747;48.628;9.058;2022-12-18T08:36:06;44.53;;;28.67;;
7410;SDS011;3747;48.628;9.058;2022-12-18T08:38:34;54.03;;;35.77;;
7410;SDS011;3747;48.628;9.058;2022-12-18T08:41:01;52.80;;;34.23;;
7410;SDS011;3747;48.628;9.058;2022-12-18T08:43:29;52.07;;;32.93;;
7410;SDS011;3747;48.628;9.058;2022-12-18T08:46:14;52.90;;;33.90;;
7410;SDS011;3747;48.628;9.058;2022-12-18T08:48:41;54.70;;;33.17;;
7410;SDS011;3747;48.628;9.058;2022-12-18T08:51:08;49.73;;;31.63;;
7410;SDS011;3747;48.628;9.058;2022-12-18T08:53:35;55.37;;;34.97;;
7410;SDS011;3747;48.628;9.058;2022-12-18T08:56:02;57.70;;;36.67;;
7410;SDS011;3747;48.628;9.058;2022-12-18T08:58:30;56.40;;;34.07;;
7410;SDS011;3747;48.628;9.058;2022-12-18T09:00:59;45.93;;;28.63;;
7410;SDS011;3747;48.628;9.058;2022-12-18T09:03:28;47.00;;;29.30;;
7410;SDS011;3747;48.628;9.058;2022-12-18T09:06:05;49.70;;;28.63;;
7410;SDS011;3747;48.628;9.058;2022-12-18T09:08:32;46.70;;;29.03;;
7410;SDS011;3747;48.628;9.058;2022-12-18T09:10:59;41.93;;;26.37;;
7410;SDS011;3747;48.628;9.058;2022-12-18T09:13:25;40.93;;;25.43;;
7410;SDS011;3747;48.628;9.058;2022-12-18T09:15:53;39.20;;;24.60;;
7410;SDS011;3747;48.628;9.058;2022-12-18T09:18:20;39.50;;;24.07;;
7410;SDS011;3747;48.628;9.058;2022-12-18T09:20:50;49.83;;;26.60;;
7410;SDS011;3747;48.628;9.058;2022-12-18T09:23:17;36.67;;;22.07;;
7410;SDS011;3747;48.628;9.058;2022-12-18T09:25:45;39.93;;;23.33;;
7410;SDS011;3747;48.628;9.058;2022-12-18T09:28:12;35.07;;;19.30;;
7410;SDS011;3747;48.628;9.058;2022-12-18T09:30:42;35.93;;;17.83;;
7410;SDS011;3747;48.628;9.058;2022-12-18T09:33:10;32.13;;;17.20;;
7410;SDS011;3747;48.628;9.058;2022-12-18T09:35:37;33.60;;;20.40;;
7410;SDS011;3747;48.628;9.058;2022-12-18T09:38:07;41.50;;;24.23;;
7410;SDS011;3747;48.628;9.058;2022-12-18T09:40:45;40.23;;;22.47;;
7410;SDS011;3747;48.628;9.058;2022-12-18T09:43:14;47.50;;;24.13;;
7410;SDS011;3747;48.628;9.058;2022-12-18T09:45:44;39.07;;;22.57;;
7410;SDS011;3747;48.628;9.058;2022-12-18T09:48:15;45.13;;;22.50;;
7410;SDS011;3747;48.628;9.058;2022-12-18T09:50:48;40.37;;;21.77;;
7410;SDS011;3747;48.628;9.058;2022-12-18T09:53:19;38.40;;;21.73;;
7410;SDS011;3747;48.628;9.058;2022-12-18T09:59:00;41.77;;;21.33;;
7410;SDS011;3747;48.628;9.058;2022-12-18T10:01:39;41.93;;;21.93;;
7410;SDS011;3747;48.628;9.058;2022-12-18T10:04:08;34.50;;;19.03;;
7410;SDS011;3747;48.628;9.058;2022-12-18T10:06:36;37.40;;;21.57;;
7410;SDS011;3747;48.628;9.058;2022-12-18T10:09:08;33.20;;;17.30;;
7410;SDS011;3747;48.628;9.058;2022-12-18T10:11:43;32.50;;;17.83;;
7410;SDS011;3747;48.628;9.058;2022-12-18T10:14:16;31.77;;;17.27;;
7410;SDS011;3747;48.628;9.058;2022-12-18T10:16:52;30.30;;;17.50;;
7410;SDS011;3747;48.628;9.058;2022-12-18T10:25:23;34.73;;;17.53;;
7410;SDS011;3747;48.628;9.058;2022-12-18T10:27:56;31.20;;;15.73;;
7410;SDS011;3747;48.628;9.058;2022-12-18T10:30:33;33.63;;;16.60;;
7410;SDS011;3747;48.628;9.058;2022-12-18T10:33:00;34.57;;;18.00;;
7410;SDS011;3747;48.628;9.058;2022-12-18T10:35:27;37.43;;;16.20;;
7410;SDS011;3747;48.628;9.058;2022-12-18T10:38:02;37.37;;;17.63;;
7410;SDS011;3747;48.628;9.058;2022-12-18T10:43:38;33.77;;;18.83;;
7410;SDS011;3747;48.628;9.058;2022-12-18T10:46:13;37.27;;;16.07;;
7410;SDS011;3747;48.628;9.058;2022-12-18T10:48:50;38.87;;;20.20;;
7410;SDS011;3747;48.628;9.058;2022-12-18T10:51:20;35.33;;;19.00;;
7410;SDS011;3747;48.628;9.058;2022-12-18T10:53:51;42.90;;;19.33;;
7410;SDS011;3747;48.628;9.058;2022-12-18T10:56:21;35.30;;;17.50;;
7410;SDS011;3747;48.628;9.058;2022-12-18T10:58:56;36.10;;;19.33;;
7410;SDS011;3747;48.628;9.058;2022-12-18T11:01:25;29.17;;;15.97;;
7410;SDS011;3747;48.628;9.058;2022-12-18T11:03:59;34.83;;;18.47;;
7410;SDS011;3747;48.628;9.058;2022-12-18T11:06:28;34.37;;;18.80;;
7410;SDS011;3747;48.628;9.058;2022-12-18T11:08:58;31.10;;;16.23;;
7410;SDS011;3747;48.628;9.058;2022-12-18T11:11:25;33.57;;;17.33;;
7410;SDS011;3747;48.628;9.058;2022-12-18T11:13:59;30.97;;;17.07;;
7410;SDS011;3747;48.628;9.058;2022-12-18T11:16:30;32.70;;;16.63;;
7410;SDS011;3747;48.628;9.058;2022-12-18T11:19:11;31.40;;;16.27;;
7410;SDS011;3747;48.628;9.058;2022-12-18T11:21:46;33.07;;;15.67;;
7410;SDS011;3747;48.628;9.058;2022-12-18T11:24:18;32.90;;;16.57;;
7410;SDS011;3747;48.628;9.058;2022-12-18T11:26:48;30.93;;;16.67;;
7410;SDS011;3747;48.628;9.058;2022-12-18T11:29:17;29.87;;;17.10;;
7410;SDS011;3747;48.628;9.058;2022-12-18T11:35:13;31.20;;;16.50;;
7410;SDS011;3747;48.628;9.058;2022-12-18T11:38:02;31.43;;;16.10;;
7410;SDS011;3747;48.628;9.058;2022-12-18T11:40:37;27.20;;;15.70;;
7410;SDS011;3747;48.628;9.058;2022-12-18T11:43:08;30.80;;;16.73;;
7410;SDS011;3747;48.628;9.058;2022-12-18T11:45:43;32.43;;;17.50;;
7410;SDS011;3747;48.628;9.058;2022-12-18T11:48:15;30.80;;;16.20;;
7410;SDS011;3747;48.628;9.058;2022-12-18T11:50:56;32.70;;;16.43;;
7410;SDS011;3747;48.628;9.058;2022-12-18T11:53:25;34.03;;;16.30;;
7410;SDS011;3747;48.628;9.058;2022-12-18T11:55:56;36.80;;;17.47;;
7410;SDS011;3747;48.628;9.058;2022-12-18T11:58:39;31.80;;;15.93;;
7410;SDS011;3747;48.628;9.058;2022-12-18T12:01:18;31.23;;;16.33;;
7410;SDS011;3747;48.628;9.058;2022-12-18T12:06:53;32.33;;;16.90;;
7410;SDS011;3747;48.628;9.058;2022-12-18T12:09:30;32.80;;;18.03;;
7410;SDS011;3747;48.628;9.058;2022-12-18T12:12:11;31.57;;;16.17;;
7410;SDS011;3747;48.628;9.058;2022-12-18T12:14:49;29.30;;;16.87;;
7410;SDS011;3747;48.628;9.058;2022-12-18T12:17:28;29.33;;;16.03;;
7410;SDS011;3747;48.628;9.058;2022-12-18T12:20:02;35.93;;;17.27;;
7410;SDS011;3747;48.628;9.058;2022-12-18T12:22:44;31.67;;;16.60;;
7410;SDS011;3747;48.628;9.058;2022-12-18T12:25:27;32.93;;;16.13;;
7410;SDS011;3747;48.628;9.058;2022-12-18T12:28:02;30.10;;;16.83;;
7410;SDS011;3747;48.628;9.058;2022-12-18T12:30:42;30.23;;;16.63;;
7410;SDS011;3747;48.628;9.058;2022-12-18T12:33:22;36.03;;;17.07;;
7410;SDS011;3747;48.628;9.058;2022-12-18T12:36:00;27.10;;;15.87;;
7410;SDS011;3747;48.628;9.058;2022-12-18T12:38:35;37.33;;;18.60;;
7410;SDS011;3747;48.628;9.058;2022-12-18T12:41:08;32.77;;;16.50;;
7410;SDS011;3747;48.628;9.058;2022-12-18T12:43:59;33.57;;;18.50;;
7410;SDS011;3747;48.628;9.058;2022-12-18T12:46:29;36.70;;;17.30;;
7410;SDS011;3747;48.628;9.058;2022-12-18T12:49:00;32.53;;;17.10;;
7410;SDS011;3747;48.628;9.058;2022-12-18T12:51:30;31.13;;;16.63;;
7410;SDS011;3747;48.628;9.058;2022-12-18T12:54:00;32.70;;;17.87;;
7410;SDS011;3747;48.628;9.058;2022-12-18T12:56:32;36.27;;;18.37;;
7410;SDS011;3747;48.628;9.058;2022-12-18T12:59:08;34.67;;;17.63;;
7410;SDS011;3747;48.628;9.058;2022-12-18T13:01:40;33.00;;;19.27;;
7410;SDS011;3747;48.628;9.058;2022-12-18T13:04:18;29.63;;;17.80;;
7410;SDS011;3747;48.628;9.058;2022-12-18T13:06:51;32.40;;;16.73;;
7410;SDS011;3747;48.628;9.058;2022-12-18T13:09:22;33.67;;;16.57;;
7410;SDS011;3747;48.628;9.058;2022-12-18T13:11:49;31.40;;;17.27;;
7410;SDS011;3747;48.628;9.058;2022-12-18T13:17:28;33.23;;;17.63;;
7410;SDS011;3747;48.628;9.058;2022-12-18T13:20:08;36.60;;;18.23;;
7410;SDS011;3747;48.628;9.058;2022-12-18T13:22:38;40.40;;;19.90;;
7410;SDS011;3747;48.628;9.058;2022-12-18T13:28:10;34.33;;;18.97;;
7410;SDS011;3747;48.628;9.058;2022-12-18T13:30:46;35.93;;;18.60;;
7410;SDS011;3747;48.628;9.058;2022-12-18T13:36:23;30.27;;;16.40;;
7410;SDS011;3747;48.628;9.058;2022-12-18T13:39:20;36.30;;;19.63;;
7410;SDS011;3747;48.628;9.058;2022-12-18T13:48:26;38.77;;;20.40;;
7410;SDS011;3747;48.628;9.058;2022-12-18T13:50:57;44.47;;;22.63;;
7410;SDS011;3747;48.628;9.058;2022-12-18T13:53:29;41.23;;;20.73;;
7410;SDS011;3747;48.628;9.058;2022-12-18T13:56:08;40.33;;;20.40;;
7410;SDS011;3747;48.628;9.058;2022-12-18T13:58:34;40.10;;;22.47;;
7410;SDS011;3747;48.628;9.058;2022-12-18T14:01:01;37.50;;;19.47;;
7410;SDS011;3747;48.628;9.058;2022-12-18T14:03:29;28.40;;;16.27;;
7410;SDS011;3747;48.628;9.058;2022-12-18T14:05:58;33.43;;;18.33;;
7410;SDS011;3747;48.628;9.058;2022-12-18T14:08:34;34.13;;;16.60;;
7410;SDS011;3747;48.628;9.058;2022-12-18T14:11:04;38.90;;;19.50;;
7410;SDS011;3747;48.628;9.058;2022-12-18T14:13:33;37.40;;;17.63;;
7410;SDS011;3747;48.628;9.058;2022-12-18T14:16:03;40.77;;;19.00;;
7410;SDS011;3747;48.628;9.058;2022-12-18T14:18:33;38.03;;;18.70;;
7410;SDS011;3747;48.628;9.058;2022-12-18T14:21:15;33.70;;;17.60;;
7410;SDS011;3747;48.628;9.058;2022-12-18T14:23:47;33.40;;;18.57;;
7410;SDS011;3747;48.628;9.058;2022-12-18T14:26:24;38.27;;;18.13;;
7410;SDS011;3747;48.628;9.058;2022-12-18T14:28:54;37.63;;;20.73;;
7410;SDS011;3747;48.628;9.058;2022-12-18T14:31:21;37.40;;;19.83;;
7410;SDS011;3747;48.628;9.058;2022-12-18T14:33:49;36.17;;;18.87;;
7410;SDS011;3747;48.628;9.058;2022-12-18T14:36:17;39.53;;;19.00;;
7410;SDS011;3747;48.628;9.058;2022-12-18T14:38:58;40.57;;;19.53;;
7410;SDS011;3747;48.628;9.058;2022-12-18T14:41:25;40.10;;;20.03;;
7410;SDS011;3747;48.628;9.058;2022-12-18T14:43:53;37.27;;;18.67;;
7410;SDS011;3747;48.628;9.058;2022-12-18T14:46:33;49.13;;;24.13;;
7410;SDS011;3747;48.628;9.058;2022-12-18T14:49:03;63.20;;;32.40;;
7410;SDS011;3747;48.628;9.058;2022-12-18T14:51:46;42.30;;;21.93;;
7410;SDS011;3747;48.628;9.058;2022-12-18T14:54:16;43.70;;;21.27;;
7410;SDS011;3747;48.628;9.058;2022-12-18T14:56:45;48.83;;;24.97;;
7410;SDS011;3747;48.628;9.058;2022-12-18T14:59:15;47.07;;;25.90;;
7410;SDS011;3747;48.628;9.058;2022-12-18T15:01:45;40.23;;;19.67;;
7410;SDS011;3747;48.628;9.058;2022-12-18T15:04:25;42.40;;;21.03;;
7410;SDS011;3747;48.628;9.058;2022-12-18T15:12:32;42.37;;;20.63;;
7410;SDS011;3747;48.628;9.058;2022-12-18T15:15:01;35.77;;;20.37;;
7410;SDS011;3747;48.628;9.058;2022-12-18T15:17:28;40.87;;;21.27;;
7410;SDS011;3747;48.628;9.058;2022-12-18T15:19:58;55.40;;;24.77;;
7410;SDS011;3747;48.628;9.058;2022-12-18T15:22:27;45.90;;;23.40;;
7410;SDS011;3747;48.628;9.058;2022-12-18T15:24:56;52.67;;;23.53;;
7410;SDS011;3747;48.628;9.058;2022-12-18T15:30:17;46.40;;;24.17;;
7410;SDS011;3747;48.628;9.058;2022-12-18T15:35:55;52.53;;;26.80;;
7410;SDS011;3747;48.628;9.058;2022-12-18T15:38:22;50.13;;;25.83;;
7410;SDS011;3747;48.628;9.058;2022-12-18T15:40:49;51.00;;;28.13;;
7410;SDS011;3747;48.628;9.058;2022-12-18T15:43:17;54.23;;;26.80;;
7410;SDS011;3747;48.628;9.058;2022-12-18T15:46:01;64.80;;;37.75;;
7410;SDS011;3747;48.628;9.058;2022-12-18T15:48:32;56.90;;;30.53;;
7410;SDS011;3747;48.628;9.058;2022-12-18T15:51:04;55.93;;;31.33;;
7410;SDS011;3747;48.628;9.058;2022-12-18T15:53:35;62.10;;;32.07;;